Time;durP1;ratioP1;P1;durP2;ratioP2;P2;SDS_P1;SDS_P2;PMS_P1;PMS_P2;Temp;Humidity;BMP_temperature;BMP_pressure;BME280_temperature;BME280_humidity;BME280_pressure;Samples;Min_cycle;Max_cycle;Signal;HPM_P1;HPM_P2
2023/05/28 00:00:06;;;;;;;13.50;5.28;;;15.50;99.40;;;;;;4991328;28;20034;-48
2023/05/28 00:02:33;;;;;;;11.52;4.10;;;15.50;99.40;;;;;;4991253;28;20031;-52
2023/05/28 00:04:58;;;;;;;12.20;4.07;;;15.40;99.50;;;;;;4991547;28;20042;-47
2023/05/28 00:07:24;;;;;;;8.52;5.10;;;15.40;99.70;;;;;;4991384;28;20069;-53
2023/05/28 00:09:51;;;;;;;11.05;4.55;;;15.40;99.70;;;;;;4991550;28;20030;-47
2023/05/28 00:12:17;;;;;;;10.23;4.60;;;15.40;99.70;;;;;;4991093;28;20564;-47
2023/05/28 00:14:42;;;;;;;9.00;4.45;;;15.30;99.70;;;;;;4990559;28;20035;-50
2023/05/28 00:17:09;;;;;;;11.52;4.10;;;15.40;99.70;;;;;;4991572;28;20030;-50
2023/05/28 00:19:34;;;;;;;14.18;5.45;;;15.30;99.70;;;;;;4991146;28;20077;-49
2023/05/28 00:22:00;;;;;;;13.13;4.55;;;15.30;99.80;;;;;;4991274;28;20026;-50
2023/05/28 00:24:26;;;;;;;16.83;5.97;;;15.30;99.80;;;;;;4994152;28;20023;-47
2023/05/28 00:26:51;;;;;;;14.35;4.43;;;15.30;99.70;;;;;;4995003;28;20483;-52
2023/05/28 00:29:17;;;;;;;13.10;4.90;;;15.30;99.80;;;;;;4994810;28;20018;-50
2023/05/28 00:31:42;;;;;;;8.07;4.55;;;15.30;99.90;;;;;;4994908;28;20038;-47
2023/05/28 00:34:08;;;;;;;9.23;4.45;;;15.20;99.90;;;;;;4994383;28;20023;-47
2023/05/28 00:36:33;;;;;;;10.93;4.70;;;15.20;99.90;;;;;;4994762;28;20478;-52
2023/05/28 00:39:04;;;;;;;12.32;4.90;;;15.10;99.90;;;;;;4994690;28;20034;-49
2023/05/28 00:41:30;;;;;;;14.27;4.25;;;15.00;99.90;;;;;;4994761;28;20022;-50
2023/05/28 00:43:56;;;;;;;15.35;5.00;;;15.00;99.90;;;;;;4994332;28;20022;-47
2023/05/28 00:46:23;;;;;;;10.55;4.88;;;15.00;99.90;;;;;;4994636;28;20022;-50
2023/05/28 00:48:50;;;;;;;8.90;4.10;;;15.00;99.90;;;;;;4994639;28;20109;-51
2023/05/28 00:51:16;;;;;;;12.75;4.75;;;14.90;99.90;;;;;;4994314;28;20038;-50
2023/05/28 00:53:42;;;;;;;7.82;4.28;;;14.80;99.90;;;;;;4994126;28;20506;-48
2023/05/28 00:56:10;;;;;;;9.63;4.40;;;14.80;99.90;;;;;;4994441;28;20065;-49
2023/05/28 00:58:42;;;;;;;6.32;4.05;;;14.80;99.90;;;;;;4994487;28;20149;-49
2023/05/28 01:01:09;;;;;;;10.65;4.45;;;14.80;99.90;;;;;;4994007;28;20537;-47
2023/05/28 01:03:38;;;;;;;12.43;4.88;;;14.80;99.90;;;;;;4994014;28;20475;-49
2023/05/28 01:06:09;;;;;;;16.88;5.20;;;14.80;99.90;;;;;;4994157;28;20510;-48
2023/05/28 01:08:36;;;;;;;7.32;4.60;;;14.80;99.90;;;;;;4994354;28;20688;-47
2023/05/28 01:11:02;;;;;;;11.77;5.05;;;14.70;99.90;;;;;;4994098;28;20024;-47
2023/05/28 01:13:28;;;;;;;8.80;4.82;;;14.70;99.90;;;;;;4993690;28;20108;-48
2023/05/28 01:15:54;;;;;;;11.95;4.60;;;14.70;99.90;;;;;;4994115;28;20092;-46
2023/05/28 01:18:20;;;;;;;9.68;4.90;;;14.70;99.90;;;;;;4994105;28;20070;-47
2023/05/28 01:20:46;;;;;;;14.65;4.30;;;14.60;99.90;;;;;;4993679;28;20058;-48
2023/05/28 01:23:20;;;;;;;17.88;5.50;;;14.60;99.90;;;;;;4993992;28;20470;-48
2023/05/28 01:25:50;;;;;;;14.32;5.20;;;14.60;99.90;;;;;;4994060;28;20025;-50
2023/05/28 01:28:16;;;;;;;11.40;5.05;;;14.60;99.90;;;;;;4994104;28;20026;-46
2023/05/28 01:30:43;;;;;;;8.40;3.88;;;14.60;99.90;;;;;;4993607;28;20029;-51
2023/05/28 01:33:11;;;;;;;13.38;5.20;;;14.60;99.90;;;;;;4993537;28;20474;-49
2023/05/28 01:35:37;;;;;;;13.50;4.53;;;14.50;99.90;;;;;;4993647;28;20042;-51
2023/05/28 01:38:03;;;;;;;8.95;3.85;;;14.50;99.90;;;;;;4994322;28;20406;-47
2023/05/28 01:40:30;;;;;;;10.23;4.88;;;14.40;99.90;;;;;;4994192;28;20113;-48
2023/05/28 01:42:57;;;;;;;11.77;4.30;;;14.40;99.90;;;;;;4992102;28;20022;-49
2023/05/28 01:45:24;;;;;;;12.38;4.38;;;14.30;99.90;;;;;;4993456;28;20273;-46
2023/05/28 01:47:50;;;;;;;9.25;4.30;;;14.30;99.90;;;;;;4993600;28;20053;-49
2023/05/28 01:50:16;;;;;;;11.15;5.22;;;14.30;99.90;;;;;;4991870;28;20057;-48
2023/05/28 01:52:42;;;;;;;8.55;4.10;;;14.30;99.90;;;;;;4993186;28;20038;-46
2023/05/28 01:55:13;;;;;;;12.50;4.93;;;14.30;99.90;;;;;;4993286;28;20033;-49
2023/05/28 01:57:39;;;;;;;7.38;4.10;;;14.30;99.90;;;;;;4993330;28;20022;-49
2023/05/28 02:00:09;;;;;;;10.48;4.95;;;14.30;99.90;;;;;;4992924;28;20025;-48
2023/05/28 02:02:35;;;;;;;12.30;5.03;;;14.20;99.90;;;;;;4992803;28;20018;-47
2023/05/28 02:05:02;;;;;;;11.25;4.15;;;14.20;99.90;;;;;;4993243;28;20046;-50
2023/05/28 02:07:27;;;;;;;7.55;4.88;;;14.20;99.90;;;;;;4993126;28;20026;-48
2023/05/28 02:09:53;;;;;;;7.82;4.78;;;14.10;99.90;;;;;;4992685;28;20030;-47
2023/05/28 02:12:18;;;;;;;11.30;5.43;;;14.10;99.90;;;;;;4992739;28;20031;-46
2023/05/28 02:14:45;;;;;;;10.02;4.38;;;14.00;99.90;;;;;;4992897;28;20116;-46
2023/05/28 02:17:12;;;;;;;13.68;4.43;;;14.00;99.90;;;;;;4992951;28;20129;-48
2023/05/28 02:19:37;;;;;;;10.75;5.20;;;13.90;99.90;;;;;;4992514;28;20018;-48
2023/05/28 02:22:11;;;;;;;9.50;4.72;;;13.90;99.90;;;;;;4992759;28;20033;-46
2023/05/28 02:24:37;;;;;;;9.48;5.03;;;13.90;99.90;;;;;;4992817;28;20093;-49
2023/05/28 02:27:04;;;;;;;16.08;4.95;;;13.90;99.90;;;;;;4992905;28;20030;-50
2023/05/28 02:29:30;;;;;;;8.88;5.03;;;13.90;99.90;;;;;;4992378;28;20104;-51
2023/05/28 02:31:55;;;;;;;9.85;4.07;;;13.80;99.90;;;;;;4992802;28;20027;-50
2023/05/28 02:34:21;;;;;;;8.07;4.57;;;13.90;99.90;;;;;;4992151;28;20026;-51
2023/05/28 02:36:46;;;;;;;9.07;4.03;;;13.80;99.90;;;;;;4992530;28;20070;-51
2023/05/28 02:39:13;;;;;;;8.70;4.60;;;13.80;99.90;;;;;;4992296;28;20023;-48
2023/05/28 02:41:38;;;;;;;10.05;4.25;;;13.70;99.90;;;;;;4992474;28;20363;-47
2023/05/28 02:44:04;;;;;;;11.50;5.13;;;13.70;99.90;;;;;;4991560;28;20038;-51
2023/05/28 02:46:29;;;;;;;13.63;5.72;;;13.70;99.90;;;;;;4991896;28;20489;-50
2023/05/28 02:48:55;;;;;;;7.45;4.28;;;13.70;99.90;;;;;;4992175;28;20105;-49
2023/05/28 02:51:20;;;;;;;12.43;4.47;;;13.60;99.90;;;;;;4991651;28;20030;-50
2023/05/28 02:53:46;;;;;;;13.30;4.97;;;13.60;99.90;;;;;;4991584;28;20034;-48
2023/05/28 02:56:11;;;;;;;8.55;4.35;;;13.60;99.90;;;;;;4992149;28;20545;-50
2023/05/28 02:58:37;;;;;;;15.77;5.38;;;13.50;99.90;;;;;;4991891;28;20069;-47
2023/05/28 03:01:03;;;;;;;6.97;4.15;;;13.50;99.90;;;;;;4991856;28;20097;-50
2023/05/28 03:03:29;;;;;;;11.82;4.90;;;13.50;99.90;;;;;;4991700;28;20463;-48
2023/05/28 03:05:54;;;;;;;12.38;4.03;;;13.40;99.90;;;;;;4992176;28;20061;-48
2023/05/28 03:08:20;;;;;;;11.45;4.85;;;13.30;99.90;;;;;;4992064;28;20030;-48
2023/05/28 03:10:45;;;;;;;6.88;4.22;;;13.30;99.90;;;;;;4991453;28;20030;-49
2023/05/28 03:13:11;;;;;;;10.82;4.82;;;13.20;99.90;;;;;;4991320;28;20565;-51
2023/05/28 03:15:36;;;;;;;9.93;4.80;;;13.30;99.90;;;;;;4991672;28;20494;-48
2023/05/28 03:18:03;;;;;;;8.35;4.30;;;13.30;99.90;;;;;;4991930;28;20035;-49
2023/05/28 03:20:29;;;;;;;13.02;5.20;;;13.30;99.90;;;;;;4991579;28;20026;-47
2023/05/28 03:22:58;;;;;;;8.88;4.47;;;13.20;99.90;;;;;;4991372;28;20459;-47
2023/05/28 03:25:26;;;;;;;13.38;5.07;;;13.20;99.90;;;;;;4991841;28;20074;-46
2023/05/28 03:27:55;;;;;;;13.57;4.32;;;13.20;99.90;;;;;;4990542;28;20030;-47
2023/05/28 03:30:21;;;;;;;10.52;4.55;;;13.10;99.90;;;;;;4991763;28;20093;-47
2023/05/28 03:32:48;;;;;;;7.53;4.25;;;13.10;99.90;;;;;;4991738;28;20109;-49
2023/05/28 03:35:13;;;;;;;8.35;4.45;;;13.10;99.90;;;;;;4992486;28;20022;-47
2023/05/28 03:37:39;;;;;;;13.52;5.18;;;13.10;99.90;;;;;;4990421;28;20030;-47
2023/05/28 03:40:08;;;;;;;7.70;4.82;;;13.00;99.90;;;;;;4991548;28;20101;-48
2023/05/28 03:42:34;;;;;;;7.53;4.47;;;13.00;99.90;;;;;;4991293;28;20046;-51
2023/05/28 03:45:00;;;;;;;12.38;4.80;;;13.10;99.90;;;;;;4991523;28;20051;-51
2023/05/28 03:47:26;;;;;;;9.88;4.85;;;13.00;99.90;;;;;;4992079;28;20504;-49
2023/05/28 03:49:52;;;;;;;7.88;4.10;;;13.10;99.90;;;;;;4991303;28;20439;-47
2023/05/28 03:52:17;;;;;;;7.50;4.47;;;13.10;99.90;;;;;;4991573;28;20030;-50
2023/05/28 03:54:43;;;;;;;14.73;4.80;;;13.10;99.90;;;;;;4991981;28;20026;-47
2023/05/28 03:57:08;;;;;;;12.73;4.70;;;13.10;99.90;;;;;;4991367;28;20030;-49
2023/05/28 03:59:34;;;;;;;10.88;5.25;;;13.10;99.90;;;;;;4994438;28;20061;-52
2023/05/28 04:01:59;;;;;;;10.90;4.80;;;13.10;99.90;;;;;;4995525;28;20101;-48
2023/05/28 04:04:25;;;;;;;6.30;4.55;;;13.00;99.90;;;;;;4995383;28;20430;-48
2023/05/28 04:06:50;;;;;;;8.90;4.68;;;13.10;99.90;;;;;;4995561;28;20027;-47
2023/05/28 04:09:16;;;;;;;20.60;5.78;;;13.00;99.90;;;;;;4995112;28;20407;-49
2023/05/28 04:11:41;;;;;;;11.65;4.95;;;13.00;99.90;;;;;;4995169;28;20029;-48
2023/05/28 04:14:09;;;;;;;12.07;4.30;;;13.00;99.90;;;;;;4994709;28;20036;-47
2023/05/28 04:16:34;;;;;;;11.40;4.47;;;12.90;99.90;;;;;;4995289;28;20018;-46
2023/05/28 04:19:00;;;;;;;9.40;5.20;;;13.00;99.90;;;;;;4993823;28;20514;-47
2023/05/28 04:21:26;;;;;;;10.85;4.50;;;13.00;99.90;;;;;;4994845;28;20034;-49
2023/05/28 04:23:51;;;;;;;12.60;5.32;;;13.10;99.90;;;;;;4994709;28;20033;-50
2023/05/28 04:26:20;;;;;;;12.70;4.88;;;13.00;99.90;;;;;;4994900;28;20030;-49
2023/05/28 04:28:46;;;;;;;10.27;4.60;;;13.10;99.90;;;;;;4994828;28;20045;-51
2023/05/28 04:31:12;;;;;;;13.43;4.80;;;13.20;99.90;;;;;;4994636;28;20398;-47
2023/05/28 04:33:38;;;;;;;9.65;4.65;;;13.30;99.90;;;;;;4993278;28;20034;-47
2023/05/28 04:36:04;;;;;;;9.40;4.68;;;13.30;99.90;;;;;;4994857;28;20026;-47
2023/05/28 04:38:31;;;;;;;11.73;4.50;;;13.30;99.90;;;;;;4994937;28;20030;-48
2023/05/28 04:40:57;;;;;;;11.93;4.70;;;13.50;99.90;;;;;;4994340;28;20041;-47
2023/05/28 04:43:23;;;;;;;5.68;3.88;;;13.60;99.90;;;;;;4994401;28;20023;-51
2023/05/28 04:45:49;;;;;;;9.57;4.85;;;13.80;99.90;;;;;;4994686;28;20058;-47
2023/05/28 04:48:15;;;;;;;14.43;5.13;;;14.00;99.90;;;;;;4994774;28;20026;-46
2023/05/28 04:50:41;;;;;;;9.75;4.78;;;14.30;99.90;;;;;;4993011;28;20026;-48
2023/05/28 04:53:06;;;;;;;12.85;4.53;;;14.80;99.90;;;;;;4992887;28;20033;-48
2023/05/28 04:55:32;;;;;;;10.50;4.88;;;15.30;99.90;;;;;;4994484;28;20027;-47
2023/05/28 04:57:57;;;;;;;10.88;4.28;;;15.80;99.90;;;;;;4994660;28;20019;-47
2023/05/28 05:00:25;;;;;;;7.45;4.20;;;16.20;99.30;;;;;;4994177;28;20493;-48
2023/05/28 05:02:52;;;;;;;9.18;4.28;;;16.60;98.70;;;;;;4994011;28;20037;-49
2023/05/28 05:05:18;;;;;;;6.97;4.53;;;16.80;98.40;;;;;;4994147;28;20022;-50
2023/05/28 05:07:44;;;;;;;11.43;4.18;;;17.10;97.50;;;;;;4994324;28;20450;-47
2023/05/28 05:10:10;;;;;;;8.43;4.30;;;17.30;97.10;;;;;;4993281;28;20058;-51
2023/05/28 05:12:36;;;;;;;11.32;4.20;;;17.70;96.80;;;;;;4993916;28;20038;-46
2023/05/28 05:15:04;;;;;;;6.80;3.55;;;17.90;96.00;;;;;;4993924;28;20034;-46
2023/05/28 05:17:30;;;;;;;7.55;4.15;;;18.10;96.00;;;;;;4994389;28;20453;-47
2023/05/28 05:19:56;;;;;;;11.20;4.00;;;18.30;95.30;;;;;;4993869;28;20073;-51
2023/05/28 05:22:22;;;;;;;9.35;3.90;;;18.70;94.70;;;;;;4993862;28;20451;-49
2023/05/28 05:24:48;;;;;;;10.50;3.92;;;19.00;94.10;;;;;;4994009;28;20034;-50
2023/05/28 05:27:13;;;;;;;8.13;4.50;;;19.30;93.90;;;;;;4994170;28;20030;-50
2023/05/28 05:29:39;;;;;;;10.02;4.43;;;18.90;93.90;;;;;;4994073;28;20027;-48
2023/05/28 05:32:05;;;;;;;7.65;4.15;;;19.00;93.90;;;;;;4993493;28;20023;-49
2023/05/28 05:34:30;;;;;;;8.90;4.10;;;19.00;94.00;;;;;;4993704;28;20076;-47
2023/05/28 05:36:58;;;;;;;6.90;4.45;;;19.30;94.10;;;;;;4993580;28;20038;-47
2023/05/28 05:39:23;;;;;;;8.25;3.58;;;19.90;93.20;;;;;;4992124;28;20032;-50
2023/05/28 05:41:49;;;;;;;10.43;4.25;;;20.50;92.30;;;;;;4993626;28;20430;-49
2023/05/28 05:44:15;;;;;;;6.50;3.60;;;20.70;91.80;;;;;;4993387;28;20126;-48
2023/05/28 05:46:40;;;;;;;9.05;4.18;;;21.00;90.90;;;;;;4993747;28;20501;-47
2023/05/28 05:49:05;;;;;;;6.60;4.13;;;21.00;90.70;;;;;;4993576;28;20034;-47
2023/05/28 05:51:32;;;;;;;9.35;3.67;;;21.40;91.10;;;;;;4993327;28;20426;-50
2023/05/28 05:53:57;;;;;;;5.68;3.72;;;21.80;90.00;;;;;;4993400;28;20049;-52
2023/05/28 05:56:23;;;;;;;8.38;3.60;;;21.70;89.10;;;;;;4993351;28;20022;-47
2023/05/28 05:58:48;;;;;;;5.75;3.45;;;22.10;88.30;;;;;;4993457;28;20101;-48
2023/05/28 06:01:17;;;;;;;8.30;3.42;;;22.20;88.00;;;;;;4993452;28;20410;-52
2023/05/28 06:03:43;;;;;;;5.35;3.35;;;22.20;87.00;;;;;;4993027;28;20025;-50
2023/05/28 06:06:09;;;;;;;8.95;3.92;;;22.00;87.30;;;;;;4993016;28;20027;-47
2023/05/28 06:08:35;;;;;;;5.57;3.47;;;21.80;88.60;;;;;;4992196;28;20390;-53
2023/05/28 06:11:01;;;;;;;8.82;3.78;;;22.60;86.90;;;;;;4992678;28;20030;-49
2023/05/28 06:13:26;;;;;;;6.63;3.95;;;22.60;85.70;;;;;;4991303;28;20117;-50
2023/05/28 06:15:52;;;;;;;8.38;4.10;;;22.20;86.30;;;;;;4993645;28;20026;-50
2023/05/28 06:18:17;;;;;;;6.82;4.78;;;22.40;87.00;;;;;;4991743;28;20484;-51
2023/05/28 06:20:43;;;;;;;9.88;4.03;;;22.40;85.80;;;;;;4991803;28;20027;-50
2023/05/28 06:23:09;;;;;;;8.88;4.10;;;22.40;85.20;;;;;;4992625;28;20018;-49
2023/05/28 06:25:35;;;;;;;5.45;3.40;;;22.00;85.90;;;;;;4991657;28;20076;-53
2023/05/28 06:28:01;;;;;;;7.75;3.50;;;22.00;85.90;;;;;;4992923;28;20025;-51
2023/05/28 06:30:26;;;;;;;7.55;3.40;;;22.70;85.30;;;;;;4992421;28;20434;-53
2023/05/28 06:32:52;;;;;;;8.32;4.28;;;23.00;84.20;;;;;;4992565;28;20034;-49
2023/05/28 06:35:18;;;;;;;5.03;3.85;;;23.20;82.90;;;;;;4992350;28;20034;-49
2023/05/28 06:37:43;;;;;;;9.20;3.95;;;23.40;82.70;;;;;;4991378;28;20030;-48
2023/05/28 06:40:10;;;;;;;9.05;3.42;;;23.40;83.50;;;;;;4992397;28;20376;-50
2023/05/28 06:42:37;;;;;;;4.22;3.00;;;23.80;83.20;;;;;;4992500;28;20410;-47
2023/05/28 06:45:02;;;;;;;6.50;3.40;;;24.00;82.10;;;;;;4992462;28;20045;-49
2023/05/28 06:47:28;;;;;;;6.18;3.33;;;23.50;82.50;;;;;;4992613;28;20030;-50
2023/05/28 06:49:55;;;;;;;7.60;3.58;;;23.60;81.80;;;;;;4990955;28;20058;-47
2023/05/28 06:52:21;;;;;;;7.25;3.50;;;23.20;82.20;;;;;;4992410;28;20446;-48
2023/05/28 06:54:46;;;;;;;7.18;3.85;;;23.10;82.80;;;;;;4992493;28;20030;-50
2023/05/28 06:57:12;;;;;;;6.65;3.20;;;23.30;82.50;;;;;;4992697;28;20035;-49
2023/05/28 06:59:37;;;;;;;5.38;3.55;;;23.60;81.30;;;;;;4992259;28;20022;-49
2023/05/28 07:02:03;;;;;;;5.88;3.60;;;23.40;82.00;;;;;;4992018;28;20033;-50
2023/05/28 07:04:28;;;;;;;6.68;3.50;;;23.30;82.60;;;;;;4992206;28;20053;-52
2023/05/28 07:06:54;;;;;;;6.82;3.03;;;23.60;83.00;;;;;;4992388;28;20022;-48
2023/05/28 07:09:19;;;;;;;10.23;3.33;;;23.60;81.00;;;;;;4992087;28;20038;-48
2023/05/28 07:11:45;;;;;;;5.63;3.22;;;23.90;81.40;;;;;;4992198;28;20030;-52
2023/05/28 07:14:10;;;;;;;6.13;3.00;;;24.10;80.00;;;;;;4990368;28;20034;-49
2023/05/28 07:16:36;;;;;;;7.85;3.50;;;24.70;78.50;;;;;;4992375;28;20046;-49
2023/05/28 07:19:01;;;;;;;8.65;3.78;;;25.10;77.50;;;;;;4992043;28;20041;-50
2023/05/28 07:21:27;;;;;;;6.35;3.30;;;25.30;76.40;;;;;;4991696;28;20026;-52
2023/05/28 07:23:52;;;;;;;6.82;3.25;;;24.90;77.20;;;;;;4991633;28;20129;-49
2023/05/28 07:26:18;;;;;;;5.85;3.78;;;25.00;77.60;;;;;;4991130;28;20482;-49
2023/05/28 07:28:43;;;;;;;6.55;3.50;;;24.80;77.80;;;;;;4991958;28;20109;-52
2023/05/28 07:31:09;;;;;;;7.20;3.33;;;25.40;77.40;;;;;;4991691;28;20034;-50
2023/05/28 07:33:36;;;;;;;6.03;3.00;;;25.60;76.10;;;;;;4995267;28;20026;-48
2023/05/28 07:36:02;;;;;;;6.38;3.20;;;25.30;75.40;;;;;;4996034;28;20035;-47
2023/05/28 07:38:27;;;;;;;6.75;3.42;;;24.50;75.50;;;;;;4996418;28;20042;-48
2023/05/28 07:40:53;;;;;;;6.32;3.47;;;24.90;76.80;;;;;;4995033;28;20433;-48
2023/05/28 07:43:18;;;;;;;8.50;3.70;;;24.40;77.70;;;;;;4995608;28;20493;-47
2023/05/28 07:45:44;;;;;;;10.80;3.67;;;24.50;76.70;;;;;;4996160;28;20027;-49
2023/05/28 07:48:09;;;;;;;7.68;3.88;;;24.20;76.10;;;;;;4996270;28;20471;-50
2023/05/28 07:50:35;;;;;;;9.18;4.03;;;24.30;76.60;;;;;;4995651;28;20030;-47
2023/05/28 07:53:03;;;;;;;5.57;3.47;;;24.10;77.60;;;;;;4995363;28;20343;-50
2023/05/28 07:55:29;;;;;;;7.07;3.65;;;24.50;76.50;;;;;;4995792;28;20505;-50
2023/05/28 07:57:55;;;;;;;10.40;3.45;;;24.60;76.70;;;;;;4994738;28;20054;-51
2023/05/28 08:00:20;;;;;;;5.95;3.40;;;24.70;76.20;;;;;;4995642;28;20516;-50
2023/05/28 08:02:46;;;;;;;8.95;3.20;;;24.40;76.10;;;;;;4995515;28;20026;-49
2023/05/28 08:05:11;;;;;;;6.45;3.80;;;24.20;77.10;;;;;;4995731;28;20022;-46
2023/05/28 08:07:37;;;;;;;8.30;4.00;;;24.50;77.10;;;;;;4996052;28;20449;-48
2023/05/28 08:10:04;;;;;;;6.80;3.42;;;24.80;76.40;;;;;;4996166;28;20035;-52
2023/05/28 08:12:30;;;;;;;7.05;3.72;;;25.20;75.90;;;;;;4994272;28;20033;-54
2023/05/28 08:14:55;;;;;;;7.13;3.58;;;25.10;75.10;;;;;;4995449;28;20490;-51
2023/05/28 08:17:22;;;;;;;9.07;3.85;;;25.40;75.40;;;;;;4995216;28;20050;-48
2023/05/28 08:19:48;;;;;;;7.13;3.33;;;25.40;75.30;;;;;;4994820;28;20100;-52
2023/05/28 08:22:14;;;;;;;5.75;3.90;;;25.30;75.40;;;;;;4994786;28;20066;-50
2023/05/28 08:24:39;;;;;;;7.47;4.35;;;25.00;76.20;;;;;;4995120;28;20510;-51
2023/05/28 08:27:06;;;;;;;7.47;3.65;;;24.50;76.60;;;;;;4995158;28;20026;-46
2023/05/28 08:29:31;;;;;;;11.65;3.75;;;24.30;77.70;;;;;;4994744;28;20022;-47
2023/05/28 08:31:58;;;;;;;7.82;3.83;;;24.00;78.00;;;;;;4995145;28;20508;-50
2023/05/28 08:34:24;;;;;;;9.13;3.15;;;24.10;78.80;;;;;;4994693;28;20353;-50
2023/05/28 08:36:50;;;;;;;8.00;3.40;;;24.00;78.10;;;;;;4995037;28;20027;-50
2023/05/28 08:39:16;;;;;;;10.95;4.30;;;23.80;78.60;;;;;;4994628;28;20434;-47
2023/05/28 08:41:43;;;;;;;10.18;3.47;;;23.80;78.40;;;;;;4995025;28;20033;-47
2023/05/28 08:44:09;;;;;;;4.75;3.30;;;23.80;77.80;;;;;;4993153;28;20401;-51
2023/05/28 08:46:36;;;;;;;7.63;3.63;;;23.70;79.00;;;;;;4994658;28;20014;-47
2023/05/28 08:49:02;;;;;;;10.20;3.95;;;23.80;79.60;;;;;;4995068;28;20034;-48
2023/05/28 08:51:32;;;;;;;5.97;3.78;;;23.60;79.80;;;;;;4994349;28;20034;-48
2023/05/28 08:53:59;;;;;;;5.88;3.45;;;23.80;79.00;;;;;;4994209;28;20030;-48
2023/05/28 08:56:25;;;;;;;10.02;4.18;;;23.60;79.20;;;;;;4994586;28;20023;-49
2023/05/28 08:58:51;;;;;;;10.18;3.58;;;23.40;78.30;;;;;;4994889;28;20018;-49
2023/05/28 09:01:17;;;;;;;6.15;3.90;;;23.30;78.90;;;;;;4993812;28;20541;-45
2023/05/28 09:03:42;;;;;;;9.75;4.15;;;23.40;79.10;;;;;;4992785;28;20034;-48
2023/05/28 09:06:08;;;;;;;9.23;3.72;;;23.50;79.80;;;;;;4994514;28;20049;-49
2023/05/28 09:08:34;;;;;;;8.50;3.35;;;23.50;80.10;;;;;;4994775;28;20058;-49
2023/05/28 09:11:13;;;;;;;8.20;3.85;;;23.80;80.80;;;;;;4992673;28;20038;-47
2023/05/28 09:13:43;;;;;;;9.02;4.22;;;24.00;78.80;;;;;;4992804;28;20034;-50
2023/05/28 09:16:09;;;;;;;10.77;3.75;;;24.00;80.00;;;;;;4989511;28;20030;-47
2023/05/28 09:18:35;;;;;;;8.57;4.03;;;23.60;79.30;;;;;;4990147;28;20028;-51
2023/05/28 09:21:06;;;;;;;5.05;2.97;;;23.40;79.40;;;;;;4993804;28;20022;-47
2023/05/28 09:23:32;;;;;;;9.60;3.63;;;23.60;79.70;;;;;;4993639;28;20031;-47
2023/05/28 09:26:00;;;;;;;6.85;3.40;;;23.50;79.90;;;;;;4994186;28;20445;-49
2023/05/28 09:28:27;;;;;;;6.50;3.75;;;23.30;81.30;;;;;;4993974;28;20061;-50
2023/05/28 09:30:55;;;;;;;8.70;3.53;;;23.80;80.50;;;;;;4992721;28;20055;-47
2023/05/28 09:33:20;;;;;;;7.63;3.70;;;23.90;78.40;;;;;;4990444;28;20022;-49
2023/05/28 09:35:59;;;;;;;7.80;4.10;;;24.00;79.90;;;;;;4993306;28;20430;-47
2023/05/28 09:38:26;;;;;;;8.48;4.40;;;23.70;79.60;;;;;;4974136;28;20026;-48
2023/05/28 09:40:54;;;;;;;9.43;3.80;;;24.00;80.10;;;;;;4973924;28;20015;-47
2023/05/28 09:43:28;;;;;;;7.45;3.28;;;24.00;79.00;;;;;;4974222;28;20023;-48
2023/05/28 09:46:08;;;;;;;9.07;4.22;;;24.20;79.10;;;;;;4974550;28;20034;-48
2023/05/28 09:48:34;;;;;;;6.07;3.70;;;24.20;78.10;;;;;;4974382;28;20380;-48
2023/05/28 09:51:04;;;;;;;9.95;3.63;;;23.90;78.90;;;;;;4973819;28;20030;-48
2023/05/28 09:53:33;;;;;;;8.60;4.20;;;23.60;80.50;;;;;;4989495;28;20494;-51
2023/05/28 09:56:00;;;;;;;7.97;3.83;;;23.40;79.10;;;;;;4990624;28;20045;-45
2023/05/28 09:58:34;;;;;;;9.60;3.78;;;23.50;80.40;;;;;;4989716;28;20030;-50
2023/05/28 10:01:04;;;;;;;40.22;24.52;;;23.50;79.20;;;;;;4992672;28;20434;-53
2023/05/28 10:03:44;;;;;;;16.80;9.85;;;23.40;76.40;;;;;;4992802;28;20022;-52
2023/05/28 10:06:13;;;;;;;11.48;4.70;;;23.40;78.20;;;;;;4993137;28;20109;-47
2023/05/28 10:08:42;;;;;;;14.57;4.25;;;23.40;77.30;;;;;;4991281;28;20030;-51
2023/05/28 10:11:14;;;;;;;6.75;3.80;;;23.50;78.30;;;;;;4991255;28;20052;-52
2023/05/28 10:13:40;;;;;;;4.63;3.20;;;23.60;75.00;;;;;;4990150;28;20457;-50
2023/05/28 10:16:07;;;;;;;8.48;4.00;;;23.30;76.00;;;;;;4992536;28;20026;-49
2023/05/28 10:18:33;;;;;;;7.53;3.45;;;23.30;77.80;;;;;;4992364;28;20030;-48
2023/05/28 10:20:59;;;;;;;11.85;3.95;;;23.30;77.20;;;;;;4974382;28;20023;-46
2023/05/28 10:23:25;;;;;;;8.30;3.97;;;23.50;77.80;;;;;;4973012;28;20094;-49
2023/05/28 10:25:51;;;;;;;9.15;3.95;;;23.40;76.40;;;;;;4980607;28;20081;-46
2023/05/28 10:28:19;;;;;;;8.52;4.55;;;23.50;77.40;;;;;;4992687;28;20099;-48
2023/05/28 10:30:45;;;;;;;11.20;3.95;;;23.30;77.30;;;;;;4992219;28;20022;-51
2023/05/28 10:33:15;;;;;;;12.02;3.75;;;23.30;77.50;;;;;;4974068;28;20022;-48
2023/05/28 10:35:53;;;;;;;7.55;4.05;;;23.30;77.60;;;;;;4973308;28;20054;-50
2023/05/28 10:38:18;;;;;;;4.88;3.45;;;23.30;78.60;;;;;;4975819;28;20073;-48
2023/05/28 10:40:44;;;;;;;8.32;3.63;;;23.40;76.70;;;;;;4990960;28;20019;-51
2023/05/28 10:43:38;;;;;;;6.65;3.58;;;23.60;77.70;;;;;;4990525;28;20022;-50
2023/05/28 10:46:07;;;;;;;5.88;3.50;;;23.60;76.50;;;;;;4992074;28;20080;-49
2023/05/28 10:48:38;;;;;;;6.60;3.85;;;23.50;75.50;;;;;;4992377;28;20033;-49
2023/05/28 10:51:04;;;;;;;8.63;3.65;;;23.60;74.80;;;;;;4992042;28;20029;-50
2023/05/28 10:53:30;;;;;;;8.98;4.03;;;23.60;77.00;;;;;;4990285;28;20050;-52
2023/05/28 10:55:56;;;;;;;8.75;4.32;;;23.50;75.40;;;;;;4990943;28;20053;-51
2023/05/28 10:58:38;;;;;;;8.60;3.88;;;23.40;75.60;;;;;;4991576;28;20508;-47
2023/05/28 11:01:10;;;;;;;7.15;3.42;;;23.40;75.90;;;;;;4989531;28;20080;-49
2023/05/28 11:03:43;;;;;;;10.98;4.28;;;23.40;74.60;;;;;;4975629;28;20109;-49
2023/05/28 11:06:10;;;;;;;6.90;3.55;;;23.50;73.20;;;;;;4972619;28;20027;-51
2023/05/28 11:08:47;;;;;;;7.00;3.63;;;23.50;73.00;;;;;;4982217;28;20736;-47
2023/05/28 11:11:15;;;;;;;9.38;4.50;;;23.60;73.00;;;;;;4992113;28;20026;-47
2023/05/28 11:13:45;;;;;;;8.50;4.70;;;23.50;72.40;;;;;;4991740;28;20112;-47
2023/05/28 11:16:12;;;;;;;12.40;5.07;;;23.30;73.50;;;;;;4992393;28;20054;-47
2023/05/28 11:18:38;;;;;;;7.32;3.90;;;23.30;72.80;;;;;;4990929;28;20422;-48
2023/05/28 11:21:07;;;;;;;8.90;4.15;;;23.40;72.30;;;;;;4992085;28;20047;-47
2023/05/28 11:23:39;;;;;;;7.63;4.18;;;23.50;71.90;;;;;;4991713;28;20019;-51
2023/05/28 11:26:06;;;;;;;7.05;4.05;;;23.40;69.80;;;;;;4996032;28;20022;-59
2023/05/28 11:28:31;;;;;;;8.25;4.32;;;23.30;68.50;;;;;;4993732;28;20057;-47
2023/05/28 11:30:58;;;;;;;7.72;3.58;;;23.30;70.90;;;;;;4972486;28;20483;-52
2023/05/28 11:33:27;;;;;;;8.93;3.88;;;23.30;72.10;;;;;;4985481;28;20030;-49
2023/05/28 11:36:00;;;;;;;6.50;3.42;;;23.40;72.80;;;;;;4990772;28;20022;-47
2023/05/28 11:38:26;;;;;;;6.65;3.25;;;23.30;72.20;;;;;;4984208;28;20041;-47
2023/05/28 11:40:58;;;;;;;4.88;3.53;;;23.40;70.10;;;;;;4991430;28;20026;-48
2023/05/28 11:43:27;;;;;;;9.77;4.53;;;23.40;71.50;;;;;;4991647;28;20025;-47
2023/05/28 11:46:00;;;;;;;8.32;4.22;;;23.40;72.40;;;;;;4990655;28;20438;-47
2023/05/28 11:48:27;;;;;;;7.82;4.43;;;23.40;72.60;;;;;;4984229;28;20068;-49
2023/05/28 11:51:00;;;;;;;7.15;3.75;;;23.50;74.00;;;;;;4991388;28;20034;-47
2023/05/28 11:53:38;;;;;;;10.40;4.20;;;23.40;71.00;;;;;;4991738;28;20084;-50
2023/05/28 11:56:04;;;;;;;7.88;3.53;;;23.40;71.30;;;;;;4990738;28;20026;-50
2023/05/28 11:58:33;;;;;;;8.50;3.55;;;23.40;72.50;;;;;;4988655;28;20027;-47
2023/05/28 12:00:58;;;;;;;10.30;4.95;;;23.50;72.30;;;;;;4991184;28;20018;-46
2023/05/28 12:03:27;;;;;;;8.15;3.67;;;23.50;73.40;;;;;;4991081;28;20022;-47
2023/05/28 12:05:52;;;;;;;10.55;4.95;;;23.60;73.90;;;;;;4991531;28;20156;-46
2023/05/28 12:08:19;;;;;;;56.33;36.88;;;23.70;71.80;;;;;;4991375;28;20109;-46
2023/05/28 12:10:45;;;;;;;9.90;4.47;;;23.80;71.30;;;;;;4987456;28;20030;-48
2023/05/28 12:13:12;;;;;;;6.63;4.45;;;23.70;70.10;;;;;;4984236;28;20509;-47
2023/05/28 12:15:38;;;;;;;10.15;6.20;;;23.60;69.80;;;;;;4996069;23;20057;-47
2023/05/28 12:18:04;;;;;;;5.43;4.00;;;23.60;70.30;;;;;;4971135;28;20062;-49
2023/05/28 12:20:32;;;;;;;5.38;3.42;;;23.70;71.70;;;;;;4974059;28;20480;-44
2023/05/28 12:23:11;;;;;;;9.35;4.22;;;23.70;69.60;;;;;;4981548;28;20149;-47
2023/05/28 12:25:42;;;;;;;8.10;4.60;;;23.70;70.00;;;;;;4965986;28;20027;-42
2023/05/28 12:28:08;;;;;;;8.00;4.80;;;23.60;68.90;;;;;;4965066;28;20022;-43
2023/05/28 12:30:34;;;;;;;7.10;4.63;;;23.60;67.80;;;;;;4975181;28;20045;-45
2023/05/28 12:32:59;;;;;;;5.47;4.10;;;23.60;68.10;;;;;;4967217;28;20491;-46
2023/05/28 12:35:25;;;;;;;7.95;4.63;;;23.70;69.50;;;;;;4956619;28;21355;-42
2023/05/28 12:37:51;;;;;;;8.10;4.43;;;23.80;69.20;;;;;;4971844;28;20035;-51
2023/05/28 12:40:16;;;;;;;6.13;4.28;;;23.80;69.00;;;;;;4956441;29;20062;-43